sensor_id;sensor_type;location;lat;lon;timestamp;P1;durP1;ratioP1;P2;durP2;ratioP2
64244;SDS011;50584;29.058;-110.966;2023-09-08T00:02:07;5.80;;;1.85;;
64244;SDS011;50584;29.058;-110.966;2023-09-08T00:04:32;11.57;;;3.70;;
64244;SDS011;50584;29.058;-110.966;2023-09-08T00:06:58;5.80;;;1.90;;
64244;SDS011;50584;29.058;-110.966;2023-09-08T00:09:24;12.07;;;2.20;;
64244;SDS011;50584;29.058;-110.966;2023-09-08T00:11:50;9.23;;;2.05;;
64244;SDS011;50584;29.058;-110.966;2023-09-08T00:14:16;5.97;;;1.85;;
64244;SDS011;50584;29.058;-110.966;2023-09-08T00:16:41;10.48;;;1.98;;
64244;SDS011;50584;29.058;-110.966;2023-09-08T00:19:10;6.30;;;2.15;;
64244;SDS011;50584;29.058;-110.966;2023-09-08T00:21:36;7.38;;;2.80;;
64244;SDS011;50584;29.058;-110.966;2023-09-08T00:24:02;9.40;;;1.92;;
64244;SDS011;50584;29.058;-110.966;2023-09-08T00:26:29;13.77;;;1.90;;
64244;SDS011;50584;29.058;-110.966;2023-09-08T00:28:55;4.22;;;1.67;;
64244;SDS011;50584;29.058;-110.966;2023-09-08T00:31:21;9.30;;;2.08;;
64244;SDS011;50584;29.058;-110.966;2023-09-08T00:33:46;6.20;;;1.92;;
64244;SDS011;50584;29.058;-110.966;2023-09-08T00:36:12;4.63;;;1.85;;
64244;SDS011;50584;29.058;-110.966;2023-09-08T00:38:38;5.22;;;2.20;;
64244;SDS011;50584;29.058;-110.966;2023-09-08T00:41:04;9.60;;;1.90;;
64244;SDS011;50584;29.058;-110.966;2023-09-08T00:43:30;7.53;;;1.90;;
64244;SDS011;50584;29.058;-110.966;2023-09-08T00:45:56;9.48;;;2.15;;
64244;SDS011;50584;29.058;-110.966;2023-09-08T00:48:24;9.70;;;1.95;;
64244;SDS011;50584;29.058;-110.966;2023-09-08T00:50:50;12.65;;;2.80;;
64244;SDS011;50584;29.058;-110.966;2023-09-08T00:53:15;11.57;;;2.35;;
64244;SDS011;50584;29.058;-110.966;2023-09-08T00:55:41;8.25;;;1.88;;
64244;SDS011;50584;29.058;-110.966;2023-09-08T00:58:07;7.10;;;2.03;;
64244;SDS011;50584;29.058;-110.966;2023-09-08T01:00:33;9.43;;;1.77;;
64244;SDS011;50584;29.058;-110.966;2023-09-08T01:02:59;7.28;;;1.90;;
64244;SDS011;50584;29.058;-110.966;2023-09-08T01:05:25;6.65;;;1.90;;
64244;SDS011;50584;29.058;-110.966;2023-09-08T01:07:51;4.28;;;2.00;;
64244;SDS011;50584;29.058;-110.966;2023-09-08T01:10:17;16.17;;;2.30;;
64244;SDS011;50584;29.058;-110.966;2023-09-08T01:12:43;6.13;;;2.00;;
64244;SDS011;50584;29.058;-110.966;2023-09-08T01:15:09;4.50;;;2.10;;
64244;SDS011;50584;29.058;-110.966;2023-09-08T01:17:35;7.10;;;2.10;;
64244;SDS011;50584;29.058;-110.966;2023-09-08T01:20:22;15.20;;;1.85;;
64244;SDS011;50584;29.058;-110.966;2023-09-08T01:25:19;13.55;;;2.13;;
64244;SDS011;50584;29.058;-110.966;2023-09-08T01:27:47;15.82;;;2.05;;
64244;SDS011;50584;29.058;-110.966;2023-09-08T01:30:14;10.65;;;2.13;;
64244;SDS011;50584;29.058;-110.966;2023-09-08T01:32:40;5.20;;;2.28;;
64244;SDS011;50584;29.058;-110.966;2023-09-08T01:35:07;5.63;;;2.08;;
64244;SDS011;50584;29.058;-110.966;2023-09-08T01:37:33;8.05;;;2.30;;
64244;SDS011;50584;29.058;-110.966;2023-09-08T01:39:59;8.80;;;2.03;;
64244;SDS011;50584;29.058;-110.966;2023-09-08T01:42:25;10.13;;;1.90;;
64244;SDS011;50584;29.058;-110.966;2023-09-08T01:44:50;3.28;;;2.63;;
64244;SDS011;50584;29.058;-110.966;2023-09-08T01:47:16;13.48;;;2.50;;
64244;SDS011;50584;29.058;-110.966;2023-09-08T01:49:42;14.32;;;3.60;;
64244;SDS011;50584;29.058;-110.966;2023-09-08T01:52:08;6.55;;;2.83;;
64244;SDS011;50584;29.058;-110.966;2023-09-08T01:54:33;7.97;;;3.25;;
64244;SDS011;50584;29.058;-110.966;2023-09-08T01:56:59;6.07;;;3.03;;
64244;SDS011;50584;29.058;-110.966;2023-09-08T01:59:25;5.43;;;2.00;;
64244;SDS011;50584;29.058;-110.966;2023-09-08T02:01:51;7.18;;;2.13;;
64244;SDS011;50584;29.058;-110.966;2023-09-08T02:04:17;8.52;;;2.35;;
64244;SDS011;50584;29.058;-110.966;2023-09-08T02:06:43;6.68;;;2.50;;
64244;SDS011;50584;29.058;-110.966;2023-09-08T02:09:08;7.03;;;2.05;;
64244;SDS011;50584;29.058;-110.966;2023-09-08T02:11:37;10.23;;;3.53;;
64244;SDS011;50584;29.058;-110.966;2023-09-08T02:14:03;9.55;;;2.10;;
64244;SDS011;50584;29.058;-110.966;2023-09-08T02:16:29;6.28;;;2.10;;
64244;SDS011;50584;29.058;-110.966;2023-09-08T02:18:54;6.43;;;2.38;;
64244;SDS011;50584;29.058;-110.966;2023-09-08T02:21:21;8.35;;;2.25;;
64244;SDS011;50584;29.058;-110.966;2023-09-08T02:23:46;8.48;;;2.50;;
64244;SDS011;50584;29.058;-110.966;2023-09-08T02:26:12;17.15;;;2.28;;
64244;SDS011;50584;29.058;-110.966;2023-09-08T02:28:38;8.70;;;2.38;;
64244;SDS011;50584;29.058;-110.966;2023-09-08T02:31:04;8.10;;;2.33;;
64244;SDS011;50584;29.058;-110.966;2023-09-08T02:33:29;12.38;;;2.45;;
64244;SDS011;50584;29.058;-110.966;2023-09-08T02:35:55;14.45;;;2.17;;
64244;SDS011;50584;29.058;-110.966;2023-09-08T02:38:21;9.38;;;2.17;;
64244;SDS011;50584;29.058;-110.966;2023-09-08T02:40:47;8.35;;;2.25;;
64244;SDS011;50584;29.058;-110.966;2023-09-08T02:43:12;10.20;;;2.38;;
64244;SDS011;50584;29.058;-110.966;2023-09-08T02:45:38;2.80;;;1.75;;
64244;SDS011;50584;29.058;-110.966;2023-09-08T02:48:13;5.97;;;1.73;;
64244;SDS011;50584;29.058;-110.966;2023-09-08T02:50:39;8.88;;;2.22;;
64244;SDS011;50584;29.058;-110.966;2023-09-08T02:53:05;6.80;;;2.22;;
64244;SDS011;50584;29.058;-110.966;2023-09-08T02:55:39;4.20;;;2.10;;
64244;SDS011;50584;29.058;-110.966;2023-09-08T02:58:05;7.10;;;2.28;;
64244;SDS011;50584;29.058;-110.966;2023-09-08T03:00:31;8.32;;;2.17;;
64244;SDS011;50584;29.058;-110.966;2023-09-08T03:02:57;4.47;;;2.13;;
64244;SDS011;50584;29.058;-110.966;2023-09-08T03:05:22;4.60;;;1.98;;
64244;SDS011;50584;29.058;-110.966;2023-09-08T03:07:48;6.93;;;1.88;;
64244;SDS011;50584;29.058;-110.966;2023-09-08T03:10:14;4.82;;;1.80;;
64244;SDS011;50584;29.058;-110.966;2023-09-08T03:12:41;10.88;;;2.70;;
64244;SDS011;50584;29.058;-110.966;2023-09-08T03:15:07;5.43;;;2.20;;
64244;SDS011;50584;29.058;-110.966;2023-09-08T03:17:33;13.20;;;2.40;;
64244;SDS011;50584;29.058;-110.966;2023-09-08T03:19:59;8.68;;;2.00;;
64244;SDS011;50584;29.058;-110.966;2023-09-08T03:22:25;7.53;;;2.45;;
64244;SDS011;50584;29.058;-110.966;2023-09-08T03:24:51;8.82;;;2.25;;
64244;SDS011;50584;29.058;-110.966;2023-09-08T03:27:17;5.32;;;1.92;;
64244;SDS011;50584;29.058;-110.966;2023-09-08T03:29:43;10.02;;;2.40;;
64244;SDS011;50584;29.058;-110.966;2023-09-08T03:32:09;8.27;;;2.40;;
64244;SDS011;50584;29.058;-110.966;2023-09-08T03:34:36;8.55;;;2.90;;
64244;SDS011;50584;29.058;-110.966;2023-09-08T03:37:05;7.68;;;2.92;;
64244;SDS011;50584;29.058;-110.966;2023-09-08T03:39:30;3.67;;;2.60;;
64244;SDS011;50584;29.058;-110.966;2023-09-08T03:41:56;10.35;;;2.50;;
64244;SDS011;50584;29.058;-110.966;2023-09-08T03:44:22;5.75;;;2.70;;
64244;SDS011;50584;29.058;-110.966;2023-09-08T03:46:48;8.82;;;3.05;;
64244;SDS011;50584;29.058;-110.966;2023-09-08T03:49:13;12.63;;;3.00;;
64244;SDS011;50584;29.058;-110.966;2023-09-08T03:51:39;10.02;;;3.10;;
64244;SDS011;50584;29.058;-110.966;2023-09-08T03:54:05;5.38;;;3.50;;
64244;SDS011;50584;29.058;-110.966;2023-09-08T03:56:31;6.25;;;2.65;;
64244;SDS011;50584;29.058;-110.966;2023-09-08T03:58:57;18.70;;;2.75;;
64244;SDS011;50584;29.058;-110.966;2023-09-08T04:01:22;8.40;;;2.65;;
64244;SDS011;50584;29.058;-110.966;2023-09-08T04:03:48;7.75;;;2.35;;
64244;SDS011;50584;29.058;-110.966;2023-09-08T04:06:14;5.13;;;2.28;;
64244;SDS011;50584;29.058;-110.966;2023-09-08T04:08:40;6.47;;;2.17;;
64244;SDS011;50584;29.058;-110.966;2023-09-08T04:11:05;11.57;;;2.83;;
64244;SDS011;50584;29.058;-110.966;2023-09-08T04:13:31;9.85;;;3.17;;
64244;SDS011;50584;29.058;-110.966;2023-09-08T04:15:57;4.63;;;2.22;;
64244;SDS011;50584;29.058;-110.966;2023-09-08T04:18:22;5.57;;;2.40;;
64244;SDS011;50584;29.058;-110.966;2023-09-08T04:20:48;3.53;;;2.22;;
64244;SDS011;50584;29.058;-110.966;2023-09-08T04:23:14;6.88;;;2.38;;
64244;SDS011;50584;29.058;-110.966;2023-09-08T04:25:40;11.55;;;2.20;;
64244;SDS011;50584;29.058;-110.966;2023-09-08T04:28:05;7.50;;;2.58;;
64244;SDS011;50584;29.058;-110.966;2023-09-08T04:30:31;5.93;;;2.42;;
64244;SDS011;50584;29.058;-110.966;2023-09-08T04:32:57;10.10;;;2.65;;
64244;SDS011;50584;29.058;-110.966;2023-09-08T04:35:23;12.70;;;2.78;;
64244;SDS011;50584;29.058;-110.966;2023-09-08T04:37:49;6.00;;;2.67;;
64244;SDS011;50584;29.058;-110.966;2023-09-08T04:40:15;5.75;;;2.65;;
64244;SDS011;50584;29.058;-110.966;2023-09-08T04:42:40;13.63;;;2.95;;
64244;SDS011;50584;29.058;-110.966;2023-09-08T04:45:06;12.50;;;2.30;;
64244;SDS011;50584;29.058;-110.966;2023-09-08T04:47:32;12.43;;;2.53;;
64244;SDS011;50584;29.058;-110.966;2023-09-08T04:49:58;6.82;;;2.50;;
64244;SDS011;50584;29.058;-110.966;2023-09-08T04:52:24;11.95;;;2.85;;
64244;SDS011;50584;29.058;-110.966;2023-09-08T04:54:50;16.15;;;2.72;;
64244;SDS011;50584;29.058;-110.966;2023-09-08T04:57:16;11.20;;;2.47;;
64244;SDS011;50584;29.058;-110.966;2023-09-08T04:59:41;14.95;;;2.63;;
64244;SDS011;50584;29.058;-110.966;2023-09-08T05:02:07;8.05;;;2.60;;
64244;SDS011;50584;29.058;-110.966;2023-09-08T05:04:33;8.77;;;3.28;;
64244;SDS011;50584;29.058;-110.966;2023-09-08T05:06:59;5.63;;;2.80;;
64244;SDS011;50584;29.058;-110.966;2023-09-08T05:09:24;4.18;;;2.53;;
64244;SDS011;50584;29.058;-110.966;2023-09-08T05:11:50;12.02;;;2.63;;
64244;SDS011;50584;29.058;-110.966;2023-09-08T05:14:16;14.45;;;2.47;;
64244;SDS011;50584;29.058;-110.966;2023-09-08T05:16:41;19.00;;;2.80;;
64244;SDS011;50584;29.058;-110.966;2023-09-08T05:19:11;5.90;;;2.30;;
64244;SDS011;50584;29.058;-110.966;2023-09-08T05:21:40;10.88;;;2.53;;
64244;SDS011;50584;29.058;-110.966;2023-09-08T05:24:08;7.57;;;2.50;;
64244;SDS011;50584;29.058;-110.966;2023-09-08T05:26:36;3.92;;;2.60;;
64244;SDS011;50584;29.058;-110.966;2023-09-08T05:29:02;5.03;;;2.20;;
64244;SDS011;50584;29.058;-110.966;2023-09-08T05:31:27;4.35;;;2.15;;
64244;SDS011;50584;29.058;-110.966;2023-09-08T05:33:53;3.28;;;2.55;;
64244;SDS011;50584;29.058;-110.966;2023-09-08T05:36:19;6.07;;;2.33;;
64244;SDS011;50584;29.058;-110.966;2023-09-08T05:38:45;10.00;;;2.30;;
64244;SDS011;50584;29.058;-110.966;2023-09-08T05:41:10;21.58;;;2.58;;
64244;SDS011;50584;29.058;-110.966;2023-09-08T05:43:36;12.15;;;2.28;;
64244;SDS011;50584;29.058;-110.966;2023-09-08T05:46:02;11.52;;;2.33;;
64244;SDS011;50584;29.058;-110.966;2023-09-08T05:48:29;7.00;;;2.10;;
64244;SDS011;50584;29.058;-110.966;2023-09-08T05:50:55;4.55;;;2.13;;
64244;SDS011;50584;29.058;-110.966;2023-09-08T05:53:21;4.50;;;2.00;;
64244;SDS011;50584;29.058;-110.966;2023-09-08T05:55:47;5.07;;;2.05;;
64244;SDS011;50584;29.058;-110.966;2023-09-08T05:58:12;4.60;;;2.08;;
64244;SDS011;50584;29.058;-110.966;2023-09-08T06:00:38;11.30;;;2.30;;
64244;SDS011;50584;29.058;-110.966;2023-09-08T06:03:04;2.40;;;2.15;;
64244;SDS011;50584;29.058;-110.966;2023-09-08T06:05:30;2.22;;;1.77;;
64244;SDS011;50584;29.058;-110.966;2023-09-08T06:07:56;3.55;;;2.03;;
64244;SDS011;50584;29.058;-110.966;2023-09-08T06:10:22;3.00;;;2.00;;
64244;SDS011;50584;29.058;-110.966;2023-09-08T06:12:47;5.15;;;1.85;;
64244;SDS011;50584;29.058;-110.966;2023-09-08T06:15:16;2.80;;;1.95;;
64244;SDS011;50584;29.058;-110.966;2023-09-08T06:17:42;3.88;;;1.95;;
64244;SDS011;50584;29.058;-110.966;2023-09-08T06:20:08;4.90;;;2.10;;
64244;SDS011;50584;29.058;-110.966;2023-09-08T06:22:34;2.75;;;1.70;;
64244;SDS011;50584;29.058;-110.966;2023-09-08T06:24:59;4.13;;;2.35;;
64244;SDS011;50584;29.058;-110.966;2023-09-08T06:27:25;4.10;;;2.65;;
64244;SDS011;50584;29.058;-110.966;2023-09-08T06:29:51;3.78;;;2.08;;
64244;SDS011;50584;29.058;-110.966;2023-09-08T06:32:17;8.05;;;2.40;;
64244;SDS011;50584;29.058;-110.966;2023-09-08T06:34:43;8.60;;;2.70;;
64244;SDS011;50584;29.058;-110.966;2023-09-08T06:37:08;9.25;;;2.60;;
64244;SDS011;50584;29.058;-110.966;2023-09-08T06:39:34;8.98;;;2.63;;
64244;SDS011;50584;29.058;-110.966;2023-09-08T06:42:00;6.63;;;2.90;;
64244;SDS011;50584;29.058;-110.966;2023-09-08T06:44:26;6.35;;;2.17;;
64244;SDS011;50584;29.058;-110.966;2023-09-08T06:46:51;6.90;;;3.03;;
64244;SDS011;50584;29.058;-110.966;2023-09-08T06:49:17;6.93;;;4.32;;
64244;SDS011;50584;29.058;-110.966;2023-09-08T06:51:43;5.18;;;3.97;;
64244;SDS011;50584;29.058;-110.966;2023-09-08T06:54:09;3.67;;;3.38;;
64244;SDS011;50584;29.058;-110.966;2023-09-08T06:56:35;6.60;;;3.40;;
64244;SDS011;50584;29.058;-110.966;2023-09-08T06:59:02;3.42;;;3.13;;
64244;SDS011;50584;29.058;-110.966;2023-09-08T07:01:27;6.30;;;2.53;;
64244;SDS011;50584;29.058;-110.966;2023-09-08T07:03:53;5.95;;;2.60;;
64244;SDS011;50584;29.058;-110.966;2023-09-08T07:06:19;4.25;;;2.67;;
64244;SDS011;50584;29.058;-110.966;2023-09-08T07:08:47;6.40;;;2.85;;
64244;SDS011;50584;29.058;-110.966;2023-09-08T07:11:15;3.25;;;2.50;;
64244;SDS011;50584;29.058;-110.966;2023-09-08T07:13:41;8.43;;;3.17;;
64244;SDS011;50584;29.058;-110.966;2023-09-08T07:16:07;3.88;;;2.60;;
64244;SDS011;50584;29.058;-110.966;2023-09-08T07:18:33;7.80;;;2.25;;
64244;SDS011;50584;29.058;-110.966;2023-09-08T07:21:01;3.30;;;2.13;;
64244;SDS011;50584;29.058;-110.966;2023-09-08T07:23:27;3.88;;;2.25;;
64244;SDS011;50584;29.058;-110.966;2023-09-08T07:25:53;9.20;;;2.83;;
64244;SDS011;50584;29.058;-110.966;2023-09-08T07:28:19;3.55;;;1.90;;
64244;SDS011;50584;29.058;-110.966;2023-09-08T07:30:45;5.13;;;2.38;;
64244;SDS011;50584;29.058;-110.966;2023-09-08T07:33:10;5.70;;;2.25;;
64244;SDS011;50584;29.058;-110.966;2023-09-08T07:35:37;2.55;;;2.00;;
64244;SDS011;50584;29.058;-110.966;2023-09-08T07:38:03;7.82;;;2.67;;
64244;SDS011;50584;29.058;-110.966;2023-09-08T07:40:29;3.13;;;1.92;;
64244;SDS011;50584;29.058;-110.966;2023-09-08T07:42:55;3.92;;;2.10;;
64244;SDS011;50584;29.058;-110.966;2023-09-08T07:45:20;2.53;;;1.75;;
64244;SDS011;50584;29.058;-110.966;2023-09-08T07:47:46;6.95;;;2.20;;
64244;SDS011;50584;29.058;-110.966;2023-09-08T07:50:16;2.33;;;2.00;;
64244;SDS011;50584;29.058;-110.966;2023-09-08T07:52:42;4.78;;;2.50;;
64244;SDS011;50584;29.058;-110.966;2023-09-08T07:55:08;4.32;;;2.10;;
64244;SDS011;50584;29.058;-110.966;2023-09-08T07:57:34;2.88;;;1.83;;
64244;SDS011;50584;29.058;-110.966;2023-09-08T07:59:59;5.53;;;2.20;;
64244;SDS011;50584;29.058;-110.966;2023-09-08T08:02:25;2.38;;;2.10;;
64244;SDS011;50584;29.058;-110.966;2023-09-08T08:04:51;2.80;;;2.15;;
64244;SDS011;50584;29.058;-110.966;2023-09-08T08:07:17;2.83;;;2.03;;
64244;SDS011;50584;29.058;-110.966;2023-09-08T08:09:42;2.25;;;2.05;;
64244;SDS011;50584;29.058;-110.966;2023-09-08T08:12:08;2.22;;;1.88;;
64244;SDS011;50584;29.058;-110.966;2023-09-08T08:14:34;4.00;;;2.00;;
64244;SDS011;50584;29.058;-110.966;2023-09-08T08:17:00;3.97;;;2.20;;
64244;SDS011;50584;29.058;-110.966;2023-09-08T08:19:26;5.97;;;2.13;;
64244;SDS011;50584;29.058;-110.966;2023-09-08T08:21:52;3.72;;;2.17;;
64244;SDS011;50584;29.058;-110.966;2023-09-08T08:24:18;5.47;;;2.45;;
64244;SDS011;50584;29.058;-110.966;2023-09-08T08:26:44;3.40;;;2.05;;
64244;SDS011;50584;29.058;-110.966;2023-09-08T08:29:10;4.60;;;2.20;;
64244;SDS011;50584;29.058;-110.966;2023-09-08T08:31:36;2.17;;;2.03;;
64244;SDS011;50584;29.058;-110.966;2023-09-08T08:34:02;4.03;;;2.20;;
64244;SDS011;50584;29.058;-110.966;2023-09-08T08:36:28;5.75;;;2.65;;
64244;SDS011;50584;29.058;-110.966;2023-09-08T08:38:54;7.13;;;2.10;;
64244;SDS011;50584;29.058;-110.966;2023-09-08T08:41:19;2.17;;;1.98;;
64244;SDS011;50584;29.058;-110.966;2023-09-08T08:43:45;3.35;;;2.45;;
64244;SDS011;50584;29.058;-110.966;2023-09-08T08:46:13;2.53;;;2.00;;
64244;SDS011;50584;29.058;-110.966;2023-09-08T08:48:42;2.42;;;1.85;;
64244;SDS011;50584;29.058;-110.966;2023-09-08T08:51:08;4.47;;;2.20;;
64244;SDS011;50584;29.058;-110.966;2023-09-08T08:53:34;8.00;;;2.10;;
64244;SDS011;50584;29.058;-110.966;2023-09-08T08:56:00;6.10;;;2.47;;
64244;SDS011;50584;29.058;-110.966;2023-09-08T08:58:27;3.67;;;2.08;;
64244;SDS011;50584;29.058;-110.966;2023-09-08T09:00:54;6.38;;;2.63;;
64244;SDS011;50584;29.058;-110.966;2023-09-08T09:03:23;5.13;;;2.00;;
64244;SDS011;50584;29.058;-110.966;2023-09-08T09:05:50;3.22;;;2.40;;
64244;SDS011;50584;29.058;-110.966;2023-09-08T09:08:16;3.83;;;2.28;;
64244;SDS011;50584;29.058;-110.966;2023-09-08T09:10:43;5.50;;;2.30;;
64244;SDS011;50584;29.058;-110.966;2023-09-08T09:13:09;5.80;;;2.38;;
64244;SDS011;50584;29.058;-110.966;2023-09-08T09:15:34;3.53;;;2.40;;
64244;SDS011;50584;29.058;-110.966;2023-09-08T09:18:06;6.07;;;2.33;;
64244;SDS011;50584;29.058;-110.966;2023-09-08T09:20:33;6.97;;;2.40;;
64244;SDS011;50584;29.058;-110.966;2023-09-08T09:22:58;4.70;;;2.30;;
64244;SDS011;50584;29.058;-110.966;2023-09-08T09:25:25;4.10;;;2.33;;
64244;SDS011;50584;29.058;-110.966;2023-09-08T09:27:51;3.72;;;2.35;;
64244;SDS011;50584;29.058;-110.966;2023-09-08T09:30:18;5.50;;;2.85;;
64244;SDS011;50584;29.058;-110.966;2023-09-08T09:32:44;2.92;;;2.65;;
64244;SDS011;50584;29.058;-110.966;2023-09-08T09:35:09;8.30;;;2.92;;
64244;SDS011;50584;29.058;-110.966;2023-09-08T09:37:35;3.55;;;2.92;;
64244;SDS011;50584;29.058;-110.966;2023-09-08T09:40:01;2.72;;;2.53;;
64244;SDS011;50584;29.058;-110.966;2023-09-08T09:42:30;4.60;;;2.60;;
64244;SDS011;50584;29.058;-110.966;2023-09-08T09:44:56;5.22;;;3.22;;
64244;SDS011;50584;29.058;-110.966;2023-09-08T09:47:22;5.40;;;2.70;;
64244;SDS011;50584;29.058;-110.966;2023-09-08T09:49:48;6.32;;;2.50;;
64244;SDS011;50584;29.058;-110.966;2023-09-08T09:52:20;9.10;;;2.50;;
64244;SDS011;50584;29.058;-110.966;2023-09-08T09:54:47;8.52;;;2.75;;
64244;SDS011;50584;29.058;-110.966;2023-09-08T09:57:17;6.30;;;2.47;;
64244;SDS011;50584;29.058;-110.966;2023-09-08T09:59:45;5.60;;;2.30;;
64244;SDS011;50584;29.058;-110.966;2023-09-08T10:02:14;7.20;;;2.22;;
64244;SDS011;50584;29.058;-110.966;2023-09-08T10:04:40;5.03;;;2.58;;
64244;SDS011;50584;29.058;-110.966;2023-09-08T10:07:07;7.18;;;3.00;;
64244;SDS011;50584;29.058;-110.966;2023-09-08T10:09:32;5.32;;;2.38;;
64244;SDS011;50584;29.058;-110.966;2023-09-08T10:11:59;5.93;;;2.78;;
64244;SDS011;50584;29.058;-110.966;2023-09-08T10:14:28;5.07;;;2.30;;
64244;SDS011;50584;29.058;-110.966;2023-09-08T10:16:54;9.10;;;2.60;;
64244;SDS011;50584;29.058;-110.966;2023-09-08T10:19:22;3.88;;;2.33;;
64244;SDS011;50584;29.058;-110.966;2023-09-08T10:21:48;6.78;;;2.80;;
64244;SDS011;50584;29.058;-110.966;2023-09-08T10:24:26;3.70;;;2.88;;
64244;SDS011;50584;29.058;-110.966;2023-09-08T10:29:31;7.43;;;2.95;;
64244;SDS011;50584;29.058;-110.966;2023-09-08T10:31:58;8.07;;;2.70;;
64244;SDS011;50584;29.058;-110.966;2023-09-08T10:34:24;7.47;;;3.13;;
64244;SDS011;50584;29.058;-110.966;2023-09-08T10:36:50;6.03;;;3.00;;
64244;SDS011;50584;29.058;-110.966;2023-09-08T10:39:35;6.65;;;2.65;;
64244;SDS011;50584;29.058;-110.966;2023-09-08T10:49:46;4.80;;;2.67;;
64244;SDS011;50584;29.058;-110.966;2023-09-08T10:52:12;9.60;;;2.90;;
64244;SDS011;50584;29.058;-110.966;2023-09-08T10:57:12;8.00;;;3.08;;
64244;SDS011;50584;29.058;-110.966;2023-09-08T10:59:38;5.90;;;3.20;;
64244;SDS011;50584;29.058;-110.966;2023-09-08T11:02:04;12.10;;;3.22;;
64244;SDS011;50584;29.058;-110.966;2023-09-08T11:04:30;4.90;;;3.08;;
64244;SDS011;50584;29.058;-110.966;2023-09-08T11:06:58;5.10;;;2.85;;
64244;SDS011;50584;29.058;-110.966;2023-09-08T11:09:24;7.45;;;3.17;;
64244;SDS011;50584;29.058;-110.966;2023-09-08T11:11:50;3.10;;;2.80;;
64244;SDS011;50584;29.058;-110.966;2023-09-08T11:14:16;3.95;;;2.85;;
64244;SDS011;50584;29.058;-110.966;2023-09-08T11:16:42;7.53;;;3.35;;
64244;SDS011;50584;29.058;-110.966;2023-09-08T11:19:08;8.45;;;3.20;;
64244;SDS011;50584;29.058;-110.966;2023-09-08T11:21:35;6.65;;;2.92;;
64244;SDS011;50584;29.058;-110.966;2023-09-08T11:24:02;10.38;;;3.38;;
64244;SDS011;50584;29.058;-110.966;2023-09-08T11:26:31;5.60;;;3.00;;
64244;SDS011;50584;29.058;-110.966;2023-09-08T11:28:58;5.10;;;3.05;;
64244;SDS011;50584;29.058;-110.966;2023-09-08T11:31:24;5.05;;;2.80;;
64244;SDS011;50584;29.058;-110.966;2023-09-08T11:33:54;6.53;;;3.30;;
64244;SDS011;50584;29.058;-110.966;2023-09-08T11:36:20;9.18;;;2.88;;
64244;SDS011;50584;29.058;-110.966;2023-09-08T11:38:46;6.40;;;2.97;;
64244;SDS011;50584;29.058;-110.966;2023-09-08T11:41:12;7.72;;;3.30;;
64244;SDS011;50584;29.058;-110.966;2023-09-08T11:43:38;6.47;;;3.17;;
64244;SDS011;50584;29.058;-110.966;2023-09-08T11:46:04;7.97;;;3.47;;
64244;SDS011;50584;29.058;-110.966;2023-09-08T11:48:31;3.45;;;2.75;;
64244;SDS011;50584;29.058;-110.966;2023-09-08T11:50:56;4.70;;;2.72;;
64244;SDS011;50584;29.058;-110.966;2023-09-08T11:53:22;4.75;;;3.10;;
64244;SDS011;50584;29.058;-110.966;2023-09-08T11:55:49;10.18;;;2.70;;
64244;SDS011;50584;29.058;-110.966;2023-09-08T11:58:15;3.13;;;2.63;;
64244;SDS011;50584;29.058;-110.966;2023-09-08T12:00:40;10.70;;;3.38;;
64244;SDS011;50584;29.058;-110.966;2023-09-08T12:03:10;8.07;;;3.45;;
64244;SDS011;50584;29.058;-110.966;2023-09-08T12:05:36;4.50;;;3.53;;
64244;SDS011;50584;29.058;-110.966;2023-09-08T12:08:03;8.02;;;3.08;;
64244;SDS011;50584;29.058;-110.966;2023-09-08T12:10:30;5.32;;;2.90;;
64244;SDS011;50584;29.058;-110.966;2023-09-08T12:13:02;4.20;;;3.20;;
64244;SDS011;50584;29.058;-110.966;2023-09-08T12:15:35;8.95;;;3.10;;
64244;SDS011;50584;29.058;-110.966;2023-09-08T12:18:02;6.55;;;3.00;;
64244;SDS011;50584;29.058;-110.966;2023-09-08T12:20:28;5.40;;;2.72;;
64244;SDS011;50584;29.058;-110.966;2023-09-08T12:22:56;5.55;;;3.08;;
64244;SDS011;50584;29.058;-110.966;2023-09-08T12:25:22;10.18;;;3.30;;
64244;SDS011;50584;29.058;-110.966;2023-09-08T12:27:49;3.15;;;2.55;;
64244;SDS011;50584;29.058;-110.966;2023-09-08T12:30:16;8.20;;;2.83;;
64244;SDS011;50584;29.058;-110.966;2023-09-08T12:32:42;11.55;;;2.83;;
64244;SDS011;50584;29.058;-110.966;2023-09-08T12:35:10;5.68;;;2.70;;
64244;SDS011;50584;29.058;-110.966;2023-09-08T12:37:36;4.25;;;3.00;;
64244;SDS011;50584;29.058;-110.966;2023-09-08T12:40:04;11.60;;;3.40;;
64244;SDS011;50584;29.058;-110.966;2023-09-08T12:42:30;4.05;;;3.20;;
64244;SDS011;50584;29.058;-110.966;2023-09-08T12:44:55;11.18;;;2.83;;
64244;SDS011;50584;29.058;-110.966;2023-09-08T12:47:21;5.53;;;3.20;;
64244;SDS011;50584;29.058;-110.966;2023-09-08T12:49:47;7.97;;;3.25;;
64244;SDS011;50584;29.058;-110.966;2023-09-08T12:52:13;9.15;;;3.03;;
64244;SDS011;50584;29.058;-110.966;2023-09-08T12:54:38;7.15;;;2.95;;
64244;SDS011;50584;29.058;-110.966;2023-09-08T12:57:04;6.35;;;3.42;;
64244;SDS011;50584;29.058;-110.966;2023-09-08T12:59:30;7.82;;;3.30;;
64244;SDS011;50584;29.058;-110.966;2023-09-08T13:01:56;8.50;;;3.33;;
64244;SDS011;50584;29.058;-110.966;2023-09-08T13:04:23;10.80;;;3.22;;
64244;SDS011;50584;29.058;-110.966;2023-09-08T13:06:49;7.07;;;3.40;;
64244;SDS011;50584;29.058;-110.966;2023-09-08T13:09:15;10.07;;;4.13;;
64244;SDS011;50584;29.058;-110.966;2023-09-08T13:11:41;11.40;;;4.00;;
64244;SDS011;50584;29.058;-110.966;2023-09-08T13:14:07;13.40;;;3.75;;
64244;SDS011;50584;29.058;-110.966;2023-09-08T13:16:33;14.27;;;3.63;;
64244;SDS011;50584;29.058;-110.966;2023-09-08T13:18:59;7.93;;;3.20;;
64244;SDS011;50584;29.058;-110.966;2023-09-08T13:21:24;7.57;;;3.42;;
64244;SDS011;50584;29.058;-110.966;2023-09-08T13:23:50;8.10;;;3.97;;
64244;SDS011;50584;29.058;-110.966;2023-09-08T13:26:16;9.50;;;3.20;;
64244;SDS011;50584;29.058;-110.966;2023-09-08T13:28:42;11.18;;;3.58;;
64244;SDS011;50584;29.058;-110.966;2023-09-08T13:31:08;11.25;;;3.33;;
64244;SDS011;50584;29.058;-110.966;2023-09-08T13:33:34;3.92;;;2.92;;
64244;SDS011;50584;29.058;-110.966;2023-09-08T13:36:00;8.32;;;3.47;;
64244;SDS011;50584;29.058;-110.966;2023-09-08T13:38:25;16.48;;;3.58;;
64244;SDS011;50584;29.058;-110.966;2023-09-08T13:40:51;10.18;;;3.40;;
64244;SDS011;50584;29.058;-110.966;2023-09-08T13:43:18;9.20;;;4.00;;
64244;SDS011;50584;29.058;-110.966;2023-09-08T13:45:44;12.25;;;3.10;;
64244;SDS011;50584;29.058;-110.966;2023-09-08T13:48:09;8.05;;;3.70;;
64244;SDS011;50584;29.058;-110.966;2023-09-08T13:50:37;6.30;;;3.67;;
64244;SDS011;50584;29.058;-110.966;2023-09-08T13:53:03;22.60;;;3.60;;
64244;SDS011;50584;29.058;-110.966;2023-09-08T13:55:29;8.60;;;3.47;;
64244;SDS011;50584;29.058;-110.966;2023-09-08T13:57:55;13.52;;;3.75;;
64244;SDS011;50584;29.058;-110.966;2023-09-08T14:00:20;11.65;;;4.05;;
64244;SDS011;50584;29.058;-110.966;2023-09-08T14:02:46;8.75;;;3.60;;
64244;SDS011;50584;29.058;-110.966;2023-09-08T14:05:12;14.45;;;3.72;;
64244;SDS011;50584;29.058;-110.966;2023-09-08T14:07:38;15.95;;;3.25;;
64244;SDS011;50584;29.058;-110.966;2023-09-08T14:10:04;10.80;;;3.33;;
64244;SDS011;50584;29.058;-110.966;2023-09-08T14:12:33;16.83;;;3.93;;
64244;SDS011;50584;29.058;-110.966;2023-09-08T14:14:59;14.68;;;3.58;;
64244;SDS011;50584;29.058;-110.966;2023-09-08T14:17:25;13.80;;;4.10;;